Pierce, Texas
Current Conditions -  °F | °C
As of 12:15 AM on Sunday 21 Dec 2014 (Local Time) from KARM Reporting Station
Haze Haze  
Wind Chill: 52°   Ceiling: 1700
Heat Index: 52°   Visibility: 5mi
Dew Point: 50°   Wind: 0mph
Humidity: 95%   Direction: NA
Pressure: 30.18"   Gusts: NA
Location:  29.24°N, 96.2°W
Report Text: KARM 210615Z AUTO 00000KT 5SM BR OVC017 11/10 A3018 RMK AO2 T01100102
Loading
Personal Weather Stations






























Interactive Weather Map New forecast layout! Learn more

10-Day Weather Forecast

Advertisements
Track Severe Weather on mobile